Meitokumaru — JG5707 — position and weather

sailwx.info

Track history (hours):
 
Tides and Currents Weather Stations Pressure Air Temp Water Temp Dewpoint Dewpoint Depression Visibility Wind Speed Wind Dir Waves Ship Positions

Meitokumaru

Last reported at 2017-Dec-11 17:00 UTC. Time now 2017-Dec-14 16:54 UTC.
Position N 33°54' E 131°12'.

Length 62 m.

Type: Tanker. MMSI: 431101051.

Date/timePositionNaut miles runAvg speedWind from/ knotsBaromVisibWave heightAir tempDewpointWater temp
2017-Dec-11 17:00N 33°54' E 131°12'0 0.0
2017-Dec-11 16:30N 33°54' E 131°12'0 0.0
2017-Dec-11 16:00N 33°54' E 131°12'0 0.0
2017-Dec-11 15:30N 33°54' E 131°12'0 0.0
2017-Dec-11 14:58N 33°54' E 131°12'0 0.0
2017-Dec-11 14:28N 33°54' E 131°12'0 0.0
2017-Dec-11 13:55N 33°54' E 131°12'0 0.0
2017-Dec-11 13:28N 33°54' E 131°12'0 0.0
2017-Dec-11 12:58N 33°54' E 131°12'0 0.1
2017-Dec-11 12:28N 33°54' E 131°12'0 0.0
2017-Dec-11 11:58N 33°54' E 131°12'0 0.0
2017-Dec-11 11:28N 33°54' E 131°12'0 0.1
2017-Dec-11 10:58N 33°54' E 131°12'0 0.1
2017-Dec-11 10:28N 33°54' E 131°12'1 1.3
2017-Dec-11 10:00N 33°54' E 131°12'4 8.5
2017-Dec-11 09:30N 33°52' E 131°17'5 9.5
2017-Dec-11 09:00N 33°53' E 131°22'1210.2
2017-Dec-11 07:49N 33°54' E 131°37'410.2
2017-Dec-11 07:27N 33°51' E 131°40'35 7.8
2017-Dec-11 02:56N 34°09' E 132°17'4 8.8
2017-Dec-11 02:30N 34°12' E 132°14'0 0.0
2017-Dec-11 01:54N 34°12' E 132°14'0 0.0
2017-Dec-11 01:25N 34°12' E 132°14'0 0.0
2017-Dec-11 00:55N 34°12' E 132°14'0 0.0
2017-Dec-11 00:19N 34°12' E 132°14'0 0.0
2017-Dec-10 23:55N 34°12' E 132°14'0 0.1
2017-Dec-10 23:23N 34°12' E 132°14'3 1.9
2017-Dec-10 21:46N 34°10' E 132°17'0 0.0
2017-Dec-10 21:30N 34°10' E 132°17'18 4.9
2017-Dec-10 17:55N 34°05' E 132°38'93 9.8
2017-Dec-10 08:23N 34°27' E 134°27'410.7
2017-Dec-10 08:00N 34°29' E 134°32'510.7
2017-Dec-10 07:30N 34°31' E 134°38'611.3
2017-Dec-10 07:00N 34°33' E 134°44'612.4
2017-Dec-10 06:30N 34°35' E 134°51'612.5
2017-Dec-10 06:00N 34°37' E 134°58'612.6
2017-Dec-10 05:30N 34°36' E 135°06'611.4
2017-Dec-10 05:00N 34°35' E 135°12'611.3
2017-Dec-10 04:30N 34°34' E 135°19'510.6
2017-Dec-10 04:00N 34°33' E 135°26'0 0.4
2017-Dec-10 03:30N 34°33' E 135°26'0 0.0
2017-Dec-10 03:00N 34°33' E 135°26'0 0.0
2017-Dec-10 02:30N 34°33' E 135°26'0 0.0
2017-Dec-10 02:00N 34°33' E 135°26'0 0.0
2017-Dec-10 01:30N 34°33' E 135°26'0 0.0
2017-Dec-10 01:00N 34°33' E 135°26'0 0.0
2017-Dec-10 00:27N 34°33' E 135°26'0 0.0
2017-Dec-10 00:00N 34°33' E 135°26'0 0.0
2017-Dec-09 23:30N 34°33' E 135°26'0 0.2
2017-Dec-09 23:00N 34°33' E 135°26'0 0.3
2017-Dec-09 22:29N 34°33' E 135°26'0 0.0
2017-Dec-09 21:59N 34°33' E 135°26'0 0.0
2017-Dec-09 21:29N 34°33' E 135°26'0 0.0
2017-Dec-09 20:59N 34°33' E 135°26'0 0.0
2017-Dec-09 20:29N 34°33' E 135°26'0 0.0
2017-Dec-09 19:59N 34°33' E 135°26'0 0.0
2017-Dec-09 19:29N 34°33' E 135°26'0 0.0
2017-Dec-09 18:59N 34°33' E 135°26'0 0.0
2017-Dec-09 18:29N 34°33' E 135°26'0 0.0
2017-Dec-09 17:59N 34°33' E 135°26'2 4.0
2017-Dec-09 17:30N 34°33' E 135°23'611.9
2017-Dec-09 17:00N 34°34' E 135°16'612.1
2017-Dec-09 16:30N 34°35' E 135°09'611.7
2017-Dec-09 16:00N 34°36' E 135°02'5 9.8
2017-Dec-09 15:30N 34°36' E 134°56'611.3
2017-Dec-09 14:56N 34°33' E 134°49'10911.8
2017-Dec-09 05:42N 34°05' E 132°41'313.0
2017-Dec-09 05:30N 34°04' E 132°38'1510.4
2017-Dec-09 04:04N 34°09' E 132°21'312.4
2017-Dec-09 03:48N 34°11' E 132°18'310.7
2017-Dec-09 03:30N 34°13' E 132°15'2 2.4
2017-Dec-09 02:50N 34°14' E 132°13'0 0.0
2017-Dec-09 02:29N 34°14' E 132°13'0 0.0
2017-Dec-09 02:00N 34°14' E 132°13'0 0.0
2017-Dec-09 01:30N 34°14' E 132°13'0 0.0
2017-Dec-09 00:31N 34°14' E 132°13'0 0.0
2017-Dec-09 00:19N 34°14' E 132°13'0 0.0
2017-Dec-08 23:34N 34°14' E 132°13'0 0.0
2017-Dec-08 23:28N 34°14' E 132°13'0 0.1
2017-Dec-08 22:53N 34°14' E 132°13'1 2.1
2017-Dec-08 22:29N 34°14' E 132°14'0 0.0
2017-Dec-08 19:10N 34°14' E 132°14'0 0.0
2017-Dec-08 18:43N 34°14' E 132°14'0 0.0
2017-Dec-08 18:28N 34°14' E 132°14'0 0.0
2017-Dec-08 17:56N 34°14' E 132°14'0 0.0
2017-Dec-08 17:16N 34°14' E 132°14'0 0.0
2017-Dec-08 16:53N 34°14' E 132°14'0 0.0
2017-Dec-08 16:22N 34°14' E 132°14'0 0.0
2017-Dec-08 15:59N 34°14' E 132°14'0 0.0
2017-Dec-08 15:30N 34°14' E 132°14'0 0.0
2017-Dec-08 14:57N 34°14' E 132°14'0 0.0
2017-Dec-08 14:23N 34°14' E 132°14'0 0.0
2017-Dec-08 13:56N 34°14' E 132°14'0 0.0
2017-Dec-08 12:40N 34°14' E 132°14'0 0.0
2017-Dec-08 00:21N 34°14' E 132°15'0 0.0
2017-Dec-07 23:57N 34°14' E 132°15'0 0.0
2017-Dec-07 23:27N 34°14' E 132°15'0 0.0
2017-Dec-07 22:53N 34°14' E 132°15'0 0.0
2017-Dec-07 22:26N 34°14' E 132°15'0 0.0
2017-Dec-07 21:52N 34°14' E 132°15'0 0.0
2017-Dec-07 21:30N 34°14' E 132°15'0 0.0
2017-Dec-07 20:57N 34°14' E 132°15'0 0.0
2017-Dec-07 20:28N 34°14' E 132°15'0 0.0
2017-Dec-07 19:50N 34°14' E 132°15'0 0.0
2017-Dec-07 19:16N 34°14' E 132°15'0 0.0
2017-Dec-07 19:00N 34°14' E 132°15'0 0.0
2017-Dec-07 18:29N 34°14' E 132°15'0 0.0
2017-Dec-07 17:20N 34°14' E 132°15'0 0.0
2017-Dec-07 17:00N 34°14' E 132°15'0 0.0
2017-Dec-07 16:05N 34°14' E 132°15'0 0.0
2017-Dec-07 15:57N 34°14' E 132°15'0 0.0
2017-Dec-07 15:26N 34°14' E 132°15'0 0.0
2017-Dec-07 14:57N 34°14' E 132°15'0 0.0
2017-Dec-07 14:26N 34°14' E 132°15'0 0.0
2017-Dec-07 13:54N 34°14' E 132°15'0 0.0
2017-Dec-07 13:28N 34°14' E 132°15'0 0.0
2017-Dec-07 12:43N 34°14' E 132°15'0 0.0
2017-Dec-07 12:16N 34°14' E 132°15'0 0.1
2017-Dec-07 11:58N 34°14' E 132°15'0 0.0
2017-Dec-07 11:28N 34°14' E 132°15'0 0.0
2017-Dec-07 10:59N 34°14' E 132°15'0 0.0
2017-Dec-07 10:30N 34°14' E 132°15'0 0.0
2017-Dec-07 09:55N 34°14' E 132°15'0 0.0
2017-Dec-07 09:28N 34°14' E 132°15'0 0.0
2017-Dec-07 08:56N 34°14' E 132°15'0 0.0
2017-Dec-07 08:23N 34°14' E 132°15'0 0.0
2017-Dec-07 07:56N 34°14' E 132°15'  
2017-Dec-04 10:24N 35°36' E 140°06'0 0.0
2017-Dec-04 10:00N 35°36' E 140°06'0 0.0
2017-Dec-04 09:30N 35°36' E 140°06'0 0.0
2017-Dec-04 09:00N 35°36' E 140°06'0 0.0
2017-Dec-04 08:31N 35°36' E 140°06'0 0.0
2017-Dec-04 08:00N 35°36' E 140°06'0 0.0
2017-Dec-04 07:30N 35°36' E 140°06'0 0.0
2017-Dec-04 07:00N 35°36' E 140°06'0 0.0
2017-Dec-04 06:31N 35°36' E 140°06'0 0.0
2017-Dec-04 06:01N 35°36' E 140°06'0 0.0
2017-Dec-04 05:31N 35°36' E 140°06'0 0.0
2017-Dec-04 05:00N 35°36' E 140°06'0 0.0
2017-Dec-04 04:28N 35°36' E 140°06'0 0.0
2017-Dec-04 04:01N 35°36' E 140°06'0 0.0
2017-Dec-04 03:31N 35°36' E 140°06'2 3.9
2017-Dec-04 03:00N 35°35' E 140°04'0 0.1
2017-Dec-04 02:29N 35°35' E 140°04'0 0.0
2017-Dec-04 01:59N 35°35' E 140°04'1 2.9
2017-Dec-04 01:30N 35°36' E 140°05'0 0.0
2017-Dec-04 00:57N 35°36' E 140°05'0 0.0
2017-Dec-04 00:30N 35°36' E 140°05'0 0.0
2017-Dec-03 23:57N 35°36' E 140°05'0 0.0
2017-Dec-03 23:30N 35°36' E 140°05'2 3.6
2017-Dec-03 23:00N 35°35' E 140°04'810.6
2017-Dec-03 22:12N 35°29' E 139°56'1 3.2
2017-Dec-03 21:58N 35°29' E 139°55'0 0.0
2017-Dec-03 21:30N 35°29' E 139°55'0 0.0
2017-Dec-03 21:00N 35°29' E 139°55'0 0.0
2017-Dec-03 20:18N 35°29' E 139°55'0 0.0
2017-Dec-03 19:48N 35°29' E 139°55'0 0.0
2017-Dec-03 19:24N 35°29' E 139°55'0 0.0
2017-Dec-03 17:36N 35°29' E 139°55'0 0.0
2017-Dec-03 17:18N 35°29' E 139°55'0 0.0
2017-Dec-03 16:57N 35°29' E 139°55'0 0.0
2017-Dec-03 16:12N 35°29' E 139°55'0 0.0
2017-Dec-03 15:48N 35°29' E 139°55'0 0.0
2017-Dec-03 15:24N 35°29' E 139°55'0 0.0
2017-Dec-03 15:00N 35°29' E 139°55'0 0.0
2017-Dec-03 14:27N 35°29' E 139°55'0 0.0
2017-Dec-03 13:57N 35°29' E 139°55'0 0.0
2017-Dec-03 13:27N 35°29' E 139°55'0 0.0
2017-Dec-03 12:57N 35°29' E 139°55'0 0.0
2017-Dec-03 12:06N 35°29' E 139°55'0 0.0
2017-Dec-03 11:57N 35°29' E 139°55'0 0.0
2017-Dec-03 11:27N 35°29' E 139°55'0 0.0
2017-Dec-03 10:57N 35°29' E 139°55'0 0.0
2017-Dec-03 10:30N 35°29' E 139°55'0 0.0
2017-Dec-03 10:00N 35°29' E 139°55'0 0.0
2017-Dec-03 09:12N 35°29' E 139°55'0 0.0
2017-Dec-03 08:57N 35°29' E 139°55'0 0.0
2017-Dec-03 08:27N 35°29' E 139°55'2 4.4
2017-Dec-03 08:00N 35°29' E 139°53'611.3
2017-Dec-03 07:30N 35°25' E 139°47'611.2
2017-Dec-03 07:00N 35°20' E 139°44'510.9
2017-Dec-03 06:30N 35°15' E 139°47'611.6
2017-Dec-03 06:00N 35°09' E 139°46'711.2
2017-Dec-03 05:22N 35°03' E 139°41'3913.2
2017-Dec-03 02:26N 34°39' E 139°04'20410.1
2017-Dec-02 06:18N 33°60' E 135°01'411.9
2017-Dec-02 05:59N 34°03' E 135°02'612.2
2017-Dec-02 05:30N 34°09' E 135°02'612.6
2017-Dec-02 04:59N 34°16' E 135°02'612.4
2017-Dec-02 04:30N 34°21' E 135°06'612.6
2017-Dec-02 04:00N 34°26' E 135°11'611.7
2017-Dec-02 03:30N 34°30' E 135°16'611.3
2017-Dec-02 03:00N 34°32' E 135°22'3 5.5
2017-Dec-02 02:28N 34°33' E 135°26'0 0.1
2017-Dec-02 01:58N 34°33' E 135°26'0 0.0
2017-Dec-02 01:28N 34°33' E 135°26'0 0.0
2017-Dec-02 00:58N 34°33' E 135°26'0 0.0
2017-Dec-02 00:28N 34°33' E 135°26'0 0.0
2017-Dec-01 23:58N 34°33' E 135°26'0 0.0
2017-Dec-01 23:28N 34°33' E 135°26'0 0.3
2017-Dec-01 23:00N 34°33' E 135°25'0 0.5
2017-Dec-01 22:28N 34°33' E 135°25'0 0.0
2017-Dec-01 21:58N 34°33' E 135°25'0 0.0
2017-Dec-01 21:28N 34°33' E 135°25'0 0.0
2017-Dec-01 20:55N 34°33' E 135°25'0 0.0
2017-Dec-01 20:28N 34°33' E 135°25'0 0.1
2017-Dec-01 19:58N 34°33' E 135°25'0 0.0
2017-Dec-01 19:29N 34°33' E 135°25'0 0.1
2017-Dec-01 18:58N 34°33' E 135°25'0 0.0
2017-Dec-01 18:28N 34°33' E 135°25'0 0.0
2017-Dec-01 17:58N 34°33' E 135°25'0 0.0
2017-Dec-01 17:28N 34°33' E 135°25'  
Track history (hours):
 
Tides and Currents Weather Stations Pressure Air Temp Water Temp Dewpoint Dewpoint Depression Visibility Wind Speed Wind Dir Waves Ship Positions

Meitokumaru

Last reported at 2017-Dec-11 17:00 UTC. Time now 2017-Dec-14 16:54 UTC.
Position N 33°54' E 131°12'.

Length 62 m.

Type: Tanker. MMSI: 431101051.

Date/timePositionNaut miles runAvg speedWind from/ knotsBaromVisibWave heightAir tempDewpointWater temp
2017-Dec-11 17:00N 33°54' E 131°12'0 0.0
2017-Dec-11 16:30N 33°54' E 131°12'0 0.0
2017-Dec-11 16:00N 33°54' E 131°12'0 0.0
2017-Dec-11 15:30N 33°54' E 131°12'0 0.0
2017-Dec-11 14:58N 33°54' E 131°12'0 0.0
2017-Dec-11 14:28N 33°54' E 131°12'0 0.0
2017-Dec-11 13:55N 33°54' E 131°12'0 0.0
2017-Dec-11 13:28N 33°54' E 131°12'0 0.0
2017-Dec-11 12:58N 33°54' E 131°12'0 0.1
2017-Dec-11 12:28N 33°54' E 131°12'0 0.0
2017-Dec-11 11:58N 33°54' E 131°12'0 0.0
2017-Dec-11 11:28N 33°54' E 131°12'0 0.1
2017-Dec-11 10:58N 33°54' E 131°12'0 0.1
2017-Dec-11 10:28N 33°54' E 131°12'1 1.3
2017-Dec-11 10:00N 33°54' E 131°12'4 8.5
2017-Dec-11 09:30N 33°52' E 131°17'5 9.5
2017-Dec-11 09:00N 33°53' E 131°22'1210.2
2017-Dec-11 07:49N 33°54' E 131°37'410.2
2017-Dec-11 07:27N 33°51' E 131°40'35 7.8
2017-Dec-11 02:56N 34°09' E 132°17'4 8.8
2017-Dec-11 02:30N 34°12' E 132°14'0 0.0
2017-Dec-11 01:54N 34°12' E 132°14'0 0.0
2017-Dec-11 01:25N 34°12' E 132°14'0 0.0
2017-Dec-11 00:55N 34°12' E 132°14'0 0.0
2017-Dec-11 00:19N 34°12' E 132°14'0 0.0
2017-Dec-10 23:55N 34°12' E 132°14'0 0.1
2017-Dec-10 23:23N 34°12' E 132°14'3 1.9
2017-Dec-10 21:46N 34°10' E 132°17'0 0.0
2017-Dec-10 21:30N 34°10' E 132°17'18 4.9
2017-Dec-10 17:55N 34°05' E 132°38'93 9.8
2017-Dec-10 08:23N 34°27' E 134°27'410.7
2017-Dec-10 08:00N 34°29' E 134°32'510.7
2017-Dec-10 07:30N 34°31' E 134°38'611.3
2017-Dec-10 07:00N 34°33' E 134°44'612.4
2017-Dec-10 06:30N 34°35' E 134°51'612.5
2017-Dec-10 06:00N 34°37' E 134°58'612.6
2017-Dec-10 05:30N 34°36' E 135°06'611.4
2017-Dec-10 05:00N 34°35' E 135°12'611.3
2017-Dec-10 04:30N 34°34' E 135°19'510.6
2017-Dec-10 04:00N 34°33' E 135°26'0 0.4
2017-Dec-10 03:30N 34°33' E 135°26'0 0.0
2017-Dec-10 03:00N 34°33' E 135°26'0 0.0
2017-Dec-10 02:30N 34°33' E 135°26'0 0.0
2017-Dec-10 02:00N 34°33' E 135°26'0 0.0
2017-Dec-10 01:30N 34°33' E 135°26'0 0.0
2017-Dec-10 01:00N 34°33' E 135°26'0 0.0
2017-Dec-10 00:27N 34°33' E 135°26'0 0.0
2017-Dec-10 00:00N 34°33' E 135°26'0 0.0
2017-Dec-09 23:30N 34°33' E 135°26'0 0.2
2017-Dec-09 23:00N 34°33' E 135°26'0 0.3
2017-Dec-09 22:29N 34°33' E 135°26'0 0.0
2017-Dec-09 21:59N 34°33' E 135°26'0 0.0
2017-Dec-09 21:29N 34°33' E 135°26'0 0.0
2017-Dec-09 20:59N 34°33' E 135°26'0 0.0
2017-Dec-09 20:29N 34°33' E 135°26'0 0.0
2017-Dec-09 19:59N 34°33' E 135°26'0 0.0
2017-Dec-09 19:29N 34°33' E 135°26'0 0.0
2017-Dec-09 18:59N 34°33' E 135°26'0 0.0
2017-Dec-09 18:29N 34°33' E 135°26'0 0.0
2017-Dec-09 17:59N 34°33' E 135°26'2 4.0
2017-Dec-09 17:30N 34°33' E 135°23'611.9
2017-Dec-09 17:00N 34°34' E 135°16'612.1
2017-Dec-09 16:30N 34°35' E 135°09'611.7
2017-Dec-09 16:00N 34°36' E 135°02'5 9.8
2017-Dec-09 15:30N 34°36' E 134°56'611.3
2017-Dec-09 14:56N 34°33' E 134°49'10911.8
2017-Dec-09 05:42N 34°05' E 132°41'313.0
2017-Dec-09 05:30N 34°04' E 132°38'1510.4
2017-Dec-09 04:04N 34°09' E 132°21'312.4
2017-Dec-09 03:48N 34°11' E 132°18'310.7
2017-Dec-09 03:30N 34°13' E 132°15'2 2.4
2017-Dec-09 02:50N 34°14' E 132°13'0 0.0
2017-Dec-09 02:29N 34°14' E 132°13'0 0.0
2017-Dec-09 02:00N 34°14' E 132°13'0 0.0
2017-Dec-09 01:30N 34°14' E 132°13'0 0.0
2017-Dec-09 00:31N 34°14' E 132°13'0 0.0
2017-Dec-09 00:19N 34°14' E 132°13'0 0.0
2017-Dec-08 23:34N 34°14' E 132°13'0 0.0
2017-Dec-08 23:28N 34°14' E 132°13'0 0.1
2017-Dec-08 22:53N 34°14' E 132°13'1 2.1
2017-Dec-08 22:29N 34°14' E 132°14'0 0.0
2017-Dec-08 19:10N 34°14' E 132°14'0 0.0
2017-Dec-08 18:43N 34°14' E 132°14'0 0.0
2017-Dec-08 18:28N 34°14' E 132°14'0 0.0
2017-Dec-08 17:56N 34°14' E 132°14'0 0.0
2017-Dec-08 17:16N 34°14' E 132°14'0 0.0
2017-Dec-08 16:53N 34°14' E 132°14'0 0.0
2017-Dec-08 16:22N 34°14' E 132°14'0 0.0
2017-Dec-08 15:59N 34°14' E 132°14'0 0.0
2017-Dec-08 15:30N 34°14' E 132°14'0 0.0
2017-Dec-08 14:57N 34°14' E 132°14'0 0.0
2017-Dec-08 14:23N 34°14' E 132°14'0 0.0
2017-Dec-08 13:56N 34°14' E 132°14'0 0.0
2017-Dec-08 12:40N 34°14' E 132°14'0 0.0
2017-Dec-08 00:21N 34°14' E 132°15'0 0.0
2017-Dec-07 23:57N 34°14' E 132°15'0 0.0
2017-Dec-07 23:27N 34°14' E 132°15'0 0.0
2017-Dec-07 22:53N 34°14' E 132°15'0 0.0
2017-Dec-07 22:26N 34°14' E 132°15'0 0.0
2017-Dec-07 21:52N 34°14' E 132°15'0 0.0
2017-Dec-07 21:30N 34°14' E 132°15'0 0.0
2017-Dec-07 20:57N 34°14' E 132°15'0 0.0
2017-Dec-07 20:28N 34°14' E 132°15'0 0.0
2017-Dec-07 19:50N 34°14' E 132°15'0 0.0
2017-Dec-07 19:16N 34°14' E 132°15'0 0.0
2017-Dec-07 19:00N 34°14' E 132°15'0 0.0
2017-Dec-07 18:29N 34°14' E 132°15'0 0.0
2017-Dec-07 17:20N 34°14' E 132°15'0 0.0
2017-Dec-07 17:00N 34°14' E 132°15'0 0.0
2017-Dec-07 16:05N 34°14' E 132°15'0 0.0
2017-Dec-07 15:57N 34°14' E 132°15'0 0.0
2017-Dec-07 15:26N 34°14' E 132°15'0 0.0
2017-Dec-07 14:57N 34°14' E 132°15'0 0.0
2017-Dec-07 14:26N 34°14' E 132°15'0 0.0
2017-Dec-07 13:54N 34°14' E 132°15'0 0.0
2017-Dec-07 13:28N 34°14' E 132°15'0 0.0
2017-Dec-07 12:43N 34°14' E 132°15'0 0.0
2017-Dec-07 12:16N 34°14' E 132°15'0 0.1
2017-Dec-07 11:58N 34°14' E 132°15'0 0.0
2017-Dec-07 11:28N 34°14' E 132°15'0 0.0
2017-Dec-07 10:59N 34°14' E 132°15'0 0.0
2017-Dec-07 10:30N 34°14' E 132°15'0 0.0
2017-Dec-07 09:55N 34°14' E 132°15'0 0.0
2017-Dec-07 09:28N 34°14' E 132°15'0 0.0
2017-Dec-07 08:56N 34°14' E 132°15'0 0.0
2017-Dec-07 08:23N 34°14' E 132°15'0 0.0
2017-Dec-07 07:56N 34°14' E 132°15'  
2017-Dec-04 10:24N 35°36' E 140°06'0 0.0
2017-Dec-04 10:00N 35°36' E 140°06'0 0.0
2017-Dec-04 09:30N 35°36' E 140°06'0 0.0
2017-Dec-04 09:00N 35°36' E 140°06'0 0.0
2017-Dec-04 08:31N 35°36' E 140°06'0 0.0
2017-Dec-04 08:00N 35°36' E 140°06'0 0.0
2017-Dec-04 07:30N 35°36' E 140°06'0 0.0
2017-Dec-04 07:00N 35°36' E 140°06'0 0.0
2017-Dec-04 06:31N 35°36' E 140°06'0 0.0
2017-Dec-04 06:01N 35°36' E 140°06'0 0.0
2017-Dec-04 05:31N 35°36' E 140°06'0 0.0
2017-Dec-04 05:00N 35°36' E 140°06'0 0.0
2017-Dec-04 04:28N 35°36' E 140°06'0 0.0
2017-Dec-04 04:01N 35°36' E 140°06'0 0.0
2017-Dec-04 03:31N 35°36' E 140°06'2 3.9
2017-Dec-04 03:00N 35°35' E 140°04'0 0.1
2017-Dec-04 02:29N 35°35' E 140°04'0 0.0
2017-Dec-04 01:59N 35°35' E 140°04'1 2.9
2017-Dec-04 01:30N 35°36' E 140°05'0 0.0
2017-Dec-04 00:57N 35°36' E 140°05'0 0.0
2017-Dec-04 00:30N 35°36' E 140°05'0 0.0
2017-Dec-03 23:57N 35°36' E 140°05'0 0.0
2017-Dec-03 23:30N 35°36' E 140°05'2 3.6
2017-Dec-03 23:00N 35°35' E 140°04'810.6
2017-Dec-03 22:12N 35°29' E 139°56'1 3.2
2017-Dec-03 21:58N 35°29' E 139°55'0 0.0
2017-Dec-03 21:30N 35°29' E 139°55'0 0.0
2017-Dec-03 21:00N 35°29' E 139°55'0 0.0
2017-Dec-03 20:18N 35°29' E 139°55'0 0.0
2017-Dec-03 19:48N 35°29' E 139°55'0 0.0
2017-Dec-03 19:24N 35°29' E 139°55'0 0.0
2017-Dec-03 17:36N 35°29' E 139°55'0 0.0
2017-Dec-03 17:18N 35°29' E 139°55'0 0.0
2017-Dec-03 16:57N 35°29' E 139°55'0 0.0
2017-Dec-03 16:12N 35°29' E 139°55'0 0.0
2017-Dec-03 15:48N 35°29' E 139°55'0 0.0
2017-Dec-03 15:24N 35°29' E 139°55'0 0.0
2017-Dec-03 15:00N 35°29' E 139°55'0 0.0
2017-Dec-03 14:27N 35°29' E 139°55'0 0.0
2017-Dec-03 13:57N 35°29' E 139°55'0 0.0
2017-Dec-03 13:27N 35°29' E 139°55'0 0.0
2017-Dec-03 12:57N 35°29' E 139°55'0 0.0
2017-Dec-03 12:06N 35°29' E 139°55'0 0.0
2017-Dec-03 11:57N 35°29' E 139°55'0 0.0
2017-Dec-03 11:27N 35°29' E 139°55'0 0.0
2017-Dec-03 10:57N 35°29' E 139°55'0 0.0
2017-Dec-03 10:30N 35°29' E 139°55'0 0.0
2017-Dec-03 10:00N 35°29' E 139°55'0 0.0
2017-Dec-03 09:12N 35°29' E 139°55'0 0.0
2017-Dec-03 08:57N 35°29' E 139°55'0 0.0
2017-Dec-03 08:27N 35°29' E 139°55'2 4.4
2017-Dec-03 08:00N 35°29' E 139°53'611.3
2017-Dec-03 07:30N 35°25' E 139°47'611.2
2017-Dec-03 07:00N 35°20' E 139°44'510.9
2017-Dec-03 06:30N 35°15' E 139°47'611.6
2017-Dec-03 06:00N 35°09' E 139°46'711.2
2017-Dec-03 05:22N 35°03' E 139°41'3913.2
2017-Dec-03 02:26N 34°39' E 139°04'20410.1
2017-Dec-02 06:18N 33°60' E 135°01'411.9
2017-Dec-02 05:59N 34°03' E 135°02'612.2
2017-Dec-02 05:30N 34°09' E 135°02'612.6
2017-Dec-02 04:59N 34°16' E 135°02'612.4
2017-Dec-02 04:30N 34°21' E 135°06'612.6
2017-Dec-02 04:00N 34°26' E 135°11'611.7
2017-Dec-02 03:30N 34°30' E 135°16'611.3
2017-Dec-02 03:00N 34°32' E 135°22'3 5.5
2017-Dec-02 02:28N 34°33' E 135°26'0 0.1
2017-Dec-02 01:58N 34°33' E 135°26'0 0.0
2017-Dec-02 01:28N 34°33' E 135°26'0 0.0
2017-Dec-02 00:58N 34°33' E 135°26'0 0.0
2017-Dec-02 00:28N 34°33' E 135°26'0 0.0
2017-Dec-01 23:58N 34°33' E 135°26'0 0.0
2017-Dec-01 23:28N 34°33' E 135°26'0 0.3
2017-Dec-01 23:00N 34°33' E 135°25'0 0.5
2017-Dec-01 22:28N 34°33' E 135°25'0 0.0
2017-Dec-01 21:58N 34°33' E 135°25'0 0.0
2017-Dec-01 21:28N 34°33' E 135°25'0 0.0
2017-Dec-01 20:55N 34°33' E 135°25'0 0.0
2017-Dec-01 20:28N 34°33' E 135°25'0 0.1
2017-Dec-01 19:58N 34°33' E 135°25'0 0.0
2017-Dec-01 19:29N 34°33' E 135°25'0 0.1
2017-Dec-01 18:58N 34°33' E 135°25'0 0.0
2017-Dec-01 18:28N 34°33' E 135°25'0 0.0
2017-Dec-01 17:58N 34°33' E 135°25'0 0.0
2017-Dec-01 17:28N 34°33' E 135°25'  

Dump ship's entire track history